Time;durP1;ratioP1;P1;durP2;ratioP2;P2;SDS_P1;SDS_P2;PMS_P1;PMS_P2;Temp;Humidity;BMP_temperature;BMP_pressure;BME280_temperature;BME280_humidity;BME280_pressure;Samples;Min_cycle;Max_cycle;Signal;HPM_P1;HPM_P2
2022/11/08 00:03:44;;;;;;;4.00;1.42;;;;;;;18.03;63.11;96538.09;10429458;28;20059;-29
2022/11/08 00:14:03;;;;;;;3.72;1.90;;;;;;;18.03;63.03;96530.50;10434345;28;20462;-29
2022/11/08 00:19:03;;;;;;;4.82;1.77;;;;;;;18.01;63.31;96532.19;10430546;28;20128;-28
2022/11/08 00:24:04;;;;;;;4.37;1.73;;;;;;;18.00;63.32;96526.28;10431651;28;20029;-30
2022/11/08 00:29:04;;;;;;;4.72;1.42;;;;;;;17.99;63.50;96518.69;10429286;28;20029;-29
2022/11/08 00:34:04;;;;;;;2.40;1.60;;;;;;;17.99;63.33;96526.31;10429527;28;20037;-31
2022/11/08 00:39:05;;;;;;;3.33;1.70;;;;;;;17.99;63.27;96522.06;10438141;28;20307;-29
2022/11/08 00:44:05;;;;;;;3.87;2.20;;;;;;;17.94;64.12;96516.19;10428584;28;20044;-30
2022/11/08 00:49:07;;;;;;;2.10;1.30;;;;;;;17.98;63.39;96509.41;10434803;28;20290;-30
2022/11/08 00:54:09;;;;;;;12.25;4.50;;;;;;;18.04;62.99;96514.44;10424460;28;20294;-30
2022/11/08 00:59:11;;;;;;;3.88;1.30;;;;;;;18.05;63.58;96498.41;10438872;28;20418;-29
2022/11/08 01:04:14;;;;;;;3.28;1.60;;;;;;;18.07;63.42;96489.97;10435626;28;20414;-29
2022/11/08 01:09:14;;;;;;;2.95;1.50;;;;;;;18.08;62.96;96491.63;10429893;28;20128;-29
2022/11/08 01:14:15;;;;;;;2.93;1.63;;;;;;;18.05;63.11;96476.47;10440596;28;20045;-29
2022/11/08 01:19:15;;;;;;;2.97;1.60;;;;;;;17.96;63.16;96458.75;10438512;28;20360;-30
2022/11/08 01:24:15;;;;;;;3.57;1.60;;;;;;;18.03;62.75;96462.97;10431378;28;20302;-30
2022/11/08 01:29:16;;;;;;;2.53;1.30;;;;;;;18.03;63.11;96457.03;10436725;28;20302;-29
2022/11/08 01:34:16;;;;;;;2.57;1.37;;;;;;;18.00;63.29;96454.53;10437926;28;20064;-29
2022/11/08 01:39:16;;;;;;;3.67;2.03;;;;;;;17.99;63.42;96441.00;10439622;28;20025;-31
2022/11/08 01:44:17;;;;;;;2.07;1.50;;;;;;;18.02;63.30;96435.09;10438446;28;20059;-30
2022/11/08 01:49:23;;;;;;;4.17;1.70;;;;;;;18.01;63.51;96441.00;10432303;28;20245;-30
2022/11/08 01:54:42;;;;;;;2.75;1.52;;;;;;;18.03;63.06;96426.66;10432111;28;20334;-29
2022/11/08 01:59:45;;;;;;;4.60;1.17;;;;;;;18.01;63.23;96423.28;10427727;28;20116;-29
2022/11/08 02:04:46;;;;;;;7.05;1.50;;;;;;;18.03;63.46;96421.56;10439422;28;20407;-29
2022/11/08 02:09:47;;;;;;;1.90;1.35;;;;;;;18.06;63.56;96411.44;10426826;28;20025;-30
2022/11/08 02:14:47;;;;;;;2.25;1.30;;;;;;;18.06;63.14;96406.34;10439147;28;20431;-29
2022/11/08 02:19:49;;;;;;;2.95;1.70;;;;;;;18.00;62.83;96411.47;10435435;28;20500;-30
2022/11/08 02:24:50;;;;;;;2.10;1.30;;;;;;;18.01;63.22;96418.22;10436134;28;20028;-29
2022/11/08 02:29:53;;;;;;;4.43;2.28;;;;;;;18.02;63.02;96410.63;10429879;28;20072;-30
2022/11/08 02:34:58;;;;;;;3.50;1.75;;;;;;;18.00;63.25;96417.34;10432601;28;20495;-29
2022/11/08 02:39:58;;;;;;;2.25;1.40;;;;;;;18.00;63.52;96406.41;10437913;28;20028;-29
2022/11/08 02:44:58;;;;;;;2.43;1.20;;;;;;;18.01;63.23;96397.94;10434753;28;20633;-30
2022/11/08 02:49:59;;;;;;;2.07;1.30;;;;;;;18.01;63.38;96403.00;10432548;28;20576;-29
2022/11/08 02:54:59;;;;;;;2.00;1.47;;;;;;;18.01;63.27;96400.47;10429327;28;20365;-30
2022/11/08 02:59:59;;;;;;;2.07;1.00;;;;;;;18.01;63.01;96395.41;10430509;28;20081;-29
2022/11/08 03:05:00;;;;;;;2.37;1.20;;;;;;;17.99;63.55;96389.53;10434727;28;20388;-29
2022/11/08 03:10:00;;;;;;;3.40;1.47;;;;;;;17.98;63.50;96383.59;10432013;28;20049;-30
2022/11/08 03:15:00;;;;;;;3.80;1.53;;;;;;;18.01;63.82;96377.69;10437806;28;20041;-30
2022/11/08 03:20:02;;;;;;;3.15;1.42;;;;;;;17.96;64.05;96366.72;10431300;28;20039;-30
2022/11/08 03:25:03;;;;;;;6.05;1.70;;;;;;;18.06;62.98;96365.81;10435298;28;20060;-30
2022/11/08 03:30:05;;;;;;;2.97;1.25;;;;;;;18.04;63.08;96362.47;10433225;28;20473;-30
2022/11/08 03:35:06;;;;;;;3.15;1.42;;;;;;;18.03;63.08;96366.72;10429682;28;20078;-29
2022/11/08 03:40:09;;;;;;;3.05;1.23;;;;;;;18.04;63.02;96375.13;10438665;28;20113;-30
2022/11/08 03:45:10;;;;;;;2.22;1.15;;;;;;;18.01;63.28;96373.44;10433013;28;20546;-30
2022/11/08 03:50:13;;;;;;;3.38;1.85;;;;;;;18.02;63.12;96371.78;10432423;28;20087;-30
2022/11/08 03:55:15;;;;;;;3.35;1.27;;;;;;;18.00;63.22;96366.69;10430133;28;20037;-29
2022/11/08 04:00:19;;;;;;;2.83;1.35;;;;;;;17.98;63.39;96370.13;10429535;28;20567;-29
2022/11/08 04:05:20;;;;;;;3.65;1.27;;;;;;;18.02;63.07;96367.56;10434023;28;20021;-29
2022/11/08 04:10:20;;;;;;;3.27;1.30;;;;;;;17.99;63.27;96369.25;10430581;28;20087;-29
2022/11/08 04:15:21;;;;;;;4.20;1.40;;;;;;;18.02;63.06;96374.31;10423529;28;20036;-30
2022/11/08 04:25:41;;;;;;;3.85;1.42;;;;;;;18.03;63.69;96360.78;10428804;28;20422;-29
2022/11/08 04:30:41;;;;;;;4.82;1.35;;;;;;;18.03;63.57;96348.13;10431300;28;20037;-29
2022/11/08 04:35:42;;;;;;;1.53;1.07;;;;;;;18.04;62.91;96352.34;10440888;28;20028;-30
2022/11/08 04:40:42;;;;;;;3.93;1.67;;;;;;;18.02;62.95;96348.97;10440090;28;20025;-30
2022/11/08 04:45:43;;;;;;;4.57;1.23;;;;;;;18.01;63.03;96344.75;10442497;28;20159;-29
2022/11/08 04:50:43;;;;;;;2.47;1.20;;;;;;;18.04;62.86;96352.34;10436758;28;20032;-30
2022/11/08 04:55:44;;;;;;;2.93;1.00;;;;;;;18.00;63.13;96355.75;10442358;28;20033;-29
2022/11/08 05:00:44;;;;;;;1.97;1.33;;;;;;;18.00;63.13;96345.63;10442862;28;20384;-29
2022/11/08 05:05:44;;;;;;;2.23;1.23;;;;;;;18.02;63.00;96349.84;10432178;28;20116;-29
2022/11/08 05:10:45;;;;;;;4.30;1.17;;;;;;;18.06;63.01;96335.44;10430341;28;20049;-29
2022/11/08 05:15:45;;;;;;;3.27;1.13;;;;;;;18.07;62.94;96334.63;10411281;28;20052;-31
2022/11/08 05:26:11;;;;;;;2.17;1.33;;;;;;;18.10;62.91;96337.97;10441079;28;20029;-31
2022/11/08 05:31:11;;;;;;;1.70;1.15;;;;;;;18.10;62.88;96335.44;10434643;28;20029;-29
2022/11/08 05:36:13;;;;;;;3.72;1.67;;;;;;;18.13;63.07;96340.47;10431265;28;20479;-29
2022/11/08 05:41:18;;;;;;;2.00;1.13;;;;;;;18.13;62.79;96332.03;10438260;28;20020;-29
2022/11/08 05:46:20;;;;;;;3.25;1.27;;;;;;;18.16;62.58;96330.31;10441346;28;20032;-29
2022/11/08 05:51:21;;;;;;;2.28;1.30;;;;;;;18.06;62.91;96322.75;10431353;28;20024;-29
2022/11/08 05:56:21;;;;;;;9.55;3.15;;;;;;;17.91;57.63;96315.25;10434796;28;20523;-30
2022/11/08 06:01:22;;;;;;;9.02;2.05;;;;;;;17.88;58.85;96310.19;10430165;28;20103;-29
2022/11/08 06:06:23;;;;;;;6.27;1.87;;;;;;;17.86;59.88;96291.63;10430217;28;20033;-31
2022/11/08 06:11:25;;;;;;;7.45;1.80;;;;;;;17.94;60.20;96293.31;10437832;28;20530;-30
2022/11/08 06:16:26;;;;;;;3.17;1.50;;;;;;;18.06;60.95;96315.16;10434218;28;20036;-30
2022/11/08 06:21:26;;;;;;;4.17;1.70;;;;;;;18.03;61.10;96330.38;10429859;28;20044;-29
2022/11/08 06:26:27;;;;;;;3.40;1.63;;;;;;;18.04;61.35;96338.00;10438458;28;20287;-29
2022/11/08 06:31:27;;;;;;;13.33;2.33;;;;;;;18.00;58.30;96326.16;10433956;28;20048;-29
2022/11/08 06:36:27;;;;;;;7.07;1.67;;;;;;;17.96;59.36;96336.31;10430306;28;20947;-29
2022/11/08 06:41:28;;;;;;;5.33;1.43;;;;;;;17.91;57.47;96343.13;10438160;28;20534;-30
2022/11/08 06:46:29;;;;;;;3.17;1.58;;;;;;;17.97;59.35;96360.81;10430145;28;20032;-29
2022/11/08 06:51:29;;;;;;;4.57;1.37;;;;;;;17.98;60.27;96359.97;10430153;28;20480;-29
2022/11/08 06:56:30;;;;;;;9.47;1.67;;;;;;;17.96;60.62;96369.25;10434436;28;20494;-30
2022/11/08 07:01:30;;;;;;;3.67;1.50;;;;;;;17.92;60.89;96363.34;10428953;28;20590;-29
2022/11/08 07:06:31;;;;;;;2.97;1.50;;;;;;;17.98;60.95;96382.78;10428321;28;20479;-29
2022/11/08 07:11:31;;;;;;;2.45;1.55;;;;;;;17.89;61.20;96365.91;10431260;28;20484;-29
2022/11/08 07:16:31;;;;;;;2.37;1.50;;;;;;;17.89;61.36;96365.06;10427875;28;20027;-29
2022/11/08 07:21:32;;;;;;;4.22;1.70;;;;;;;17.87;61.51;96380.28;10428248;28;20024;-29
2022/11/08 07:26:32;;;;;;;5.80;1.80;;;;;;;17.93;61.65;96379.41;10437873;28;20483;-29
2022/11/08 07:31:32;;;;;;;3.83;1.70;;;;;;;17.92;61.70;96383.63;10434219;28;20143;-30
2022/11/08 07:36:33;;;;;;;4.47;1.63;;;;;;;17.95;61.61;96377.69;10428718;28;20661;-29
2022/11/08 07:41:33;;;;;;;5.57;1.97;;;;;;;17.99;61.56;96382.75;10434576;28;20572;-30
2022/11/08 07:46:34;;;;;;;2.70;1.88;;;;;;;17.99;61.72;96371.78;10428734;28;20039;-29
2022/11/08 07:51:34;;;;;;;3.97;1.60;;;;;;;18.00;61.71;96370.94;10436187;28;20048;-29
2022/11/08 07:56:34;;;;;;;3.58;1.50;;;;;;;17.95;62.19;96381.09;10432391;28;20500;-29
2022/11/08 08:01:35;;;;;;;6.60;1.53;;;;;;;17.94;61.88;96378.56;10423788;28;20030;-30
2022/11/08 08:06:35;;;;;;;2.20;1.13;;;;;;;17.94;61.94;96376.03;10431825;28;20033;-29
2022/11/08 08:11:35;;;;;;;3.73;1.60;;;;;;;17.93;61.91;96374.34;10445149;28;20049;-29
2022/11/08 08:16:36;;;;;;;2.87;1.43;;;;;;;17.91;61.87;96376.88;10435436;28;20039;-30
2022/11/08 08:21:36;;;;;;;2.60;1.43;;;;;;;17.89;62.09;96383.63;10434644;28;20041;-30
2022/11/08 08:26:37;;;;;;;2.27;1.20;;;;;;;17.91;62.14;96392.06;10442857;28;20128;-30
2022/11/08 08:31:37;;;;;;;2.15;1.20;;;;;;;17.89;62.44;96398.81;10433742;28;20029;-30
2022/11/08 08:36:37;;;;;;;3.58;1.30;;;;;;;17.90;62.29;96404.75;10434274;28;20025;-30
2022/11/08 08:41:38;;;;;;;2.60;1.60;;;;;;;17.85;62.48;96391.25;10439639;28;20035;-30
2022/11/08 08:46:38;;;;;;;2.63;1.67;;;;;;;17.92;62.37;96408.94;10428505;28;20294;-29
2022/11/08 08:51:39;;;;;;;1.67;1.30;;;;;;;17.95;62.17;96413.16;10433849;28;20291;-29
2022/11/08 08:56:39;;;;;;;1.88;1.13;;;;;;;17.95;62.16;96418.22;10438573;28;20059;-29
2022/11/08 09:01:40;;;;;;;2.42;1.33;;;;;;;17.96;62.04;96419.91;10438202;28;20041;-29
2022/11/08 09:06:40;;;;;;;2.33;1.10;;;;;;;17.94;61.97;96432.59;10432972;28;20033;-29
2022/11/08 09:11:41;;;;;;;2.57;1.27;;;;;;;17.91;62.05;96416.56;10438093;28;20284;-29
2022/11/08 09:16:41;;;;;;;1.37;1.07;;;;;;;17.92;62.23;96423.31;10436812;28;20060;-31
2022/11/08 09:21:41;;;;;;;1.57;1.30;;;;;;;17.92;62.27;96423.31;10432954;28;20292;-29
2022/11/08 09:26:42;;;;;;;2.28;1.10;;;;;;;17.91;62.29;96421.63;10432044;28;20306;-30
2022/11/08 09:31:42;;;;;;;3.90;1.00;;;;;;;17.91;62.39;96431.75;10435838;28;20039;-29
2022/11/08 09:36:43;;;;;;;1.87;1.37;;;;;;;17.92;62.43;96428.38;10434326;28;20370;-29
2022/11/08 09:42:19;;;;;;;2.90;1.23;;;;;;;17.91;61.92;96432.59;10432432;28;20637;-30
2022/11/08 09:47:25;;;;;;;2.55;1.00;;;;;;;17.87;62.50;96430.06;10443260;28;20291;-30
2022/11/08 09:52:28;;;;;;;2.03;1.10;;;;;;;17.88;62.56;96437.66;10434445;28;20033;-30
2022/11/08 09:57:40;;;;;;;1.70;1.10;;;;;;;17.94;62.37;96436.81;10435878;28;20033;-30
2022/11/08 10:02:41;;;;;;;2.00;1.30;;;;;;;17.94;62.52;96424.13;10423880;28;20025;-30
2022/11/08 10:07:59;;;;;;;2.55;1.02;;;;;;;17.93;62.54;96415.69;10429370;28;20048;-29
2022/11/08 10:13:11;;;;;;;1.20;1.10;;;;;;;17.93;62.36;96412.31;10427288;28;20393;-29
2022/11/08 10:18:38;;;;;;;1.80;1.27;;;;;;;17.91;62.32;96412.31;10436811;28;20032;-30
2022/11/08 10:23:43;;;;;;;;;;;;;;;17.90;62.44;96419.94;10429824;28;20064;-30
2022/11/08 10:28:49;;;;;;;1.92;1.00;;;;;;;17.90;62.57;96414.88;10437451;28;19923;-29
2022/11/08 10:33:59;;;;;;;1.42;1.23;;;;;;;17.87;62.29;96414.88;10432825;28;20037;-30
2022/11/08 10:39:03;;;;;;;1.58;1.15;;;;;;;17.88;62.50;96404.75;10436748;28;20061;-29
2022/11/08 10:44:05;;;;;;;1.33;1.05;;;;;;;17.88;62.31;96402.22;10435794;28;20063;-30
2022/11/08 10:49:39;;;;;;;1.58;1.30;;;;;;;17.89;62.43;96392.91;10430380;28;20029;-29
2022/11/08 10:54:42;;;;;;;1.40;1.10;;;;;;;17.90;62.54;96394.63;10427155;28;20044;-30
2022/11/08 10:59:44;;;;;;;0.80;0.80;;;;;;;17.91;62.36;96396.31;10423804;28;20029;-29
2022/11/08 11:04:44;;;;;;;3.13;1.10;;;;;;;17.90;62.25;96384.50;10437645;28;20088;-30
2022/11/08 11:09:45;;;;;;;1.83;1.13;;;;;;;17.87;62.74;96374.34;10425730;28;20026;-30
2022/11/08 11:14:45;;;;;;;1.53;1.43;;;;;;;17.93;62.56;96384.47;10434752;28;20033;-30
2022/11/08 11:19:56;;;;;;;1.40;1.13;;;;;;;17.90;62.61;96379.44;10433123;28;20678;-30
2022/11/08 11:25:05;;;;;;;1.23;1.00;;;;;;;17.89;62.68;96376.03;10440958;28;20276;-31
2022/11/08 11:30:30;;;;;;;1.25;0.70;;;;;;;17.89;62.54;96376.03;10426942;28;20399;-30
2022/11/08 11:36:06;;;;;;;1.00;0.80;;;;;;;17.91;62.35;96365.91;10425670;28;20518;-29
2022/11/08 11:41:20;;;;;;;0.90;0.73;;;;;;;17.90;62.38;96364.22;10424317;28;20049;-29
2022/11/08 11:46:33;;;;;;;2.88;1.45;;;;;;;17.85;62.46;96355.78;10418277;28;20537;-29
2022/11/08 11:51:33;;;;;;;0.75;0.70;;;;;;;17.89;62.74;96354.91;10428178;28;20040;-30
2022/11/08 11:56:43;;;;;;;2.23;1.67;;;;;;;17.88;62.56;96350.72;10430834;28;20037;-30
2022/11/08 12:02:20;;;;;;;1.35;0.73;;;;;;;17.86;62.81;96348.19;10412689;28;20080;-29
2022/11/08 12:07:26;;;;;;;4.75;2.25;;;;;;;17.86;63.14;96347.34;10426687;28;20064;-30
2022/11/08 12:13:11;;;;;;;2.17;0.93;;;;;;;17.84;62.98;96328.78;10431538;28;20032;-29
2022/11/08 12:18:33;;;;;;;0.95;0.85;;;;;;;17.90;63.46;96324.53;10428259;28;20095;-29
2022/11/08 12:23:52;;;;;;;1.05;0.77;;;;;;;17.88;63.48;96322.84;10425649;28;20036;-29
2022/11/08 12:29:11;;;;;;;1.27;0.80;;;;;;;17.91;63.04;96315.25;10446420;28;20040;-29
2022/11/08 12:34:22;;;;;;;1.52;0.80;;;;;;;17.91;63.06;96312.72;10438052;28;20029;-29
2022/11/08 12:39:33;;;;;;;1.60;1.17;;;;;;;17.90;63.09;96300.91;10426940;28;20025;-30
2022/11/08 12:45:01;;;;;;;2.88;1.25;;;;;;;17.91;63.20;96295.00;10432797;28;20059;-30
2022/11/08 12:50:21;;;;;;;1.85;1.15;;;;;;;17.89;63.55;96289.94;10430804;28;20044;-31
2022/11/08 12:55:26;;;;;;;2.55;1.67;;;;;;;17.89;63.58;96294.16;10433514;28;20020;-30
2022/11/08 13:00:29;;;;;;;3.00;1.33;;;;;;;17.90;63.48;96283.19;10435731;28;20028;-31
2022/11/08 13:05:35;;;;;;;20.73;1.88;;;;;;;17.92;63.07;96287.38;10436191;28;20079;-30
2022/11/08 13:10:55;;;;;;;3.87;1.30;;;;;;;17.92;63.20;96284.03;10437559;28;20112;-30
2022/11/08 13:16:15;;;;;;;2.78;0.80;;;;;;;17.90;63.27;96278.13;10433377;28;20755;-29
2022/11/08 13:21:24;;;;;;;4.80;1.17;;;;;;;17.91;63.02;96273.03;10435042;28;20037;-30
2022/11/08 13:26:25;;;;;;;3.72;1.02;;;;;;;17.95;62.90;96261.19;10436194;28;20048;-30
2022/11/08 13:31:56;;;;;;;1.50;1.38;;;;;;;17.98;63.78;96254.44;10434151;28;20033;-30
2022/11/08 13:37:29;;;;;;;3.20;1.33;;;;;;;18.03;63.14;96259.47;10438745;28;20040;-30
2022/11/08 13:43:14;;;;;;;2.38;1.17;;;;;;;18.06;62.86;96254.38;10439677;28;20036;-29
2022/11/08 13:48:24;;;;;;;3.63;1.15;;;;;;;18.06;62.87;96260.28;10448429;28;20719;-30
2022/11/08 13:53:45;;;;;;;2.70;0.95;;;;;;;18.06;63.04;96259.44;10449359;28;20048;-29
2022/11/08 13:58:45;;;;;;;2.20;1.05;;;;;;;18.05;62.79;96262.81;10442800;28;20025;-29
2022/11/08 14:03:46;;;;;;;12.15;1.42;;;;;;;18.06;62.57;96259.44;10438361;28;20030;-29
2022/11/08 14:08:52;;;;;;;3.53;1.87;;;;;;;18.03;63.14;96254.41;10437737;28;20037;-30
2022/11/08 14:14:08;;;;;;;6.55;1.70;;;;;;;18.07;63.07;96245.94;10428314;28;20037;-29
2022/11/08 14:19:21;;;;;;;5.63;1.73;;;;;;;18.10;63.02;96243.38;10435982;28;20553;-30
2022/11/08 14:24:25;;;;;;;7.82;2.30;;;;;;;18.11;63.03;96247.59;10433377;28;20029;-29
2022/11/08 14:29:25;;;;;;;3.10;1.50;;;;;;;18.11;62.81;96247.59;10437020;28;20040;-30
2022/11/08 14:34:36;;;;;;;7.13;2.10;;;;;;;18.09;63.19;96246.78;10433602;28;20467;-30
2022/11/08 14:39:37;;;;;;;4.85;2.28;;;;;;;18.08;63.33;96243.38;10435293;28;20398;-30
2022/11/08 14:44:42;;;;;;;5.80;2.43;;;;;;;18.09;63.55;96251.84;10433553;28;20033;-29
2022/11/08 14:49:46;;;;;;;3.85;2.30;;;;;;;18.10;63.19;96248.44;10428909;28;20032;-30
2022/11/08 14:54:48;;;;;;;5.93;1.92;;;;;;;18.08;63.16;96252.69;10428622;28;20043;-30
2022/11/08 14:59:48;;;;;;;5.72;1.80;;;;;;;18.06;63.51;96254.38;10429957;28;20022;-31
2022/11/08 15:04:49;;;;;;;3.42;1.90;;;;;;;18.05;63.60;96251.00;10434360;28;20025;-29
2022/11/08 15:09:49;;;;;;;3.63;1.80;;;;;;;18.02;63.68;96247.66;10425198;28;20109;-31
2022/11/08 15:14:59;;;;;;;9.13;1.92;;;;;;;18.05;63.60;96252.69;10435650;28;20108;-29
2022/11/08 15:20:05;;;;;;;3.85;2.03;;;;;;;18.03;63.56;96244.28;10431779;28;20427;-29
2022/11/08 15:25:22;;;;;;;3.83;1.90;;;;;;;18.04;63.67;96238.34;10441147;28;20047;-30
2022/11/08 15:30:29;;;;;;;4.97;1.60;;;;;;;18.00;63.52;96250.19;10430571;28;20506;-29
2022/11/08 15:35:33;;;;;;;3.10;1.50;;;;;;;18.03;63.54;96259.47;10429790;28;20130;-31
2022/11/08 15:40:37;;;;;;;2.95;1.70;;;;;;;18.00;63.88;96259.50;10434394;28;20506;-29
2022/11/08 15:45:51;;;;;;;5.50;1.88;;;;;;;18.01;63.96;96261.19;10424521;28;20025;-29
2022/11/08 15:50:53;;;;;;;6.05;2.20;;;;;;;18.02;65.02;96260.31;10425425;28;20376;-30
2022/11/08 15:56:04;;;;;;;3.85;1.60;;;;;;;18.01;64.10;96262.00;10432955;28;20112;-32
2022/11/08 16:01:05;;;;;;;3.92;1.83;;;;;;;18.02;63.70;96262.84;10424395;28;20582;-31
2022/11/08 16:06:08;;;;;;;2.38;1.30;;;;;;;17.97;63.91;96254.44;10424335;28;20037;-31
2022/11/08 16:11:19;;;;;;;4.28;1.63;;;;;;;17.98;63.63;96251.06;10429844;28;20084;-30
2022/11/08 16:16:19;;;;;;;2.35;1.33;;;;;;;17.93;64.31;96247.72;10430092;28;20411;-28
2022/11/08 16:21:20;;;;;;;1.80;1.20;;;;;;;17.97;63.96;96267.09;10433016;28;20029;-31
2022/11/08 16:26:20;;;;;;;2.67;1.33;;;;;;;17.96;63.89;96273.88;10427209;28;20064;-29
2022/11/08 16:31:21;;;;;;;4.40;1.40;;;;;;;17.96;63.88;96275.53;10435776;28;20033;-30
2022/11/08 16:36:23;;;;;;;7.25;2.88;;;;;;;17.92;62.35;96277.25;10434923;28;20025;-30
2022/11/08 16:41:26;;;;;;;3.38;1.90;;;;;;;17.90;63.47;96268.81;10443424;28;20057;-29
2022/11/08 16:46:27;;;;;;;4.07;1.60;;;;;;;17.93;63.37;96270.50;10437815;28;20535;-29
2022/11/08 16:51:28;;;;;;;4.97;1.80;;;;;;;17.93;63.55;96270.50;10436755;28;20047;-30
2022/11/08 16:56:28;;;;;;;3.70;1.77;;;;;;;17.97;63.88;96265.41;10437882;28;20044;-29
2022/11/08 17:01:31;;;;;;;4.78;1.80;;;;;;;17.97;64.05;96264.56;10438207;28;20033;-30
2022/11/08 17:06:32;;;;;;;3.88;1.85;;;;;;;17.98;63.86;96267.09;10437548;28;20060;-29
2022/11/08 17:11:32;;;;;;;7.55;3.33;;;;;;;17.95;63.46;96261.19;10438475;28;20043;-30
2022/11/08 17:16:33;;;;;;;4.35;1.90;;;;;;;17.91;64.05;96254.47;10438535;28;20031;-29
2022/11/08 17:21:33;;;;;;;2.20;1.43;;;;;;;17.96;63.63;96276.41;10433335;28;20116;-30
2022/11/08 17:26:33;;;;;;;4.00;2.07;;;;;;;17.95;63.49;96277.25;10433384;28;20700;-29
2022/11/08 17:31:34;;;;;;;3.33;1.77;;;;;;;17.95;63.62;96284.00;10439406;28;20503;-29
2022/11/08 17:36:34;;;;;;;4.37;1.83;;;;;;;17.94;64.15;96284.84;10440567;28;20494;-29
2022/11/08 17:41:34;;;;;;;2.33;1.77;;;;;;;17.91;63.99;96292.47;10439537;28;20452;-30
2022/11/08 17:46:35;;;;;;;2.40;1.60;;;;;;;17.91;63.89;96293.28;10433166;28;20040;-30
2022/11/08 17:51:35;;;;;;;4.37;2.00;;;;;;;17.90;64.05;96306.81;10433216;28;20341;-30
2022/11/08 17:56:36;;;;;;;3.78;2.28;;;;;;;17.92;63.72;96301.75;10436451;28;20041;-30
2022/11/08 18:01:36;;;;;;;4.63;1.73;;;;;;;17.86;63.14;96311.91;10431132;28;20052;-29
2022/11/08 18:06:40;;;;;;;7.82;1.98;;;;;;;17.86;64.06;96311.91;10425667;28;20033;-29
2022/11/08 18:11:46;;;;;;;5.63;2.63;;;;;;;17.94;64.29;96307.63;10434802;28;20645;-29
2022/11/08 18:16:47;;;;;;;5.00;1.67;;;;;;;17.94;63.83;96300.03;10429038;28;20430;-30
2022/11/08 18:21:48;;;;;;;2.83;1.60;;;;;;;17.95;63.56;96289.06;10430191;28;20043;-30
2022/11/08 18:26:49;;;;;;;2.83;1.80;;;;;;;17.96;63.71;96289.06;10437698;28;20033;-30
2022/11/08 18:31:49;;;;;;;3.33;2.38;;;;;;;17.96;63.53;96289.06;10428326;28;20040;-30
2022/11/08 18:36:49;;;;;;;5.03;1.93;;;;;;;17.92;63.86;96296.69;10429546;28;20059;-29
2022/11/08 18:41:50;;;;;;;4.77;2.07;;;;;;;17.93;63.98;96303.44;10434769;28;20566;-30
2022/11/08 18:46:50;;;;;;;5.40;2.60;;;;;;;17.91;63.96;96300.06;10433885;28;20381;-28
2022/11/08 18:51:52;;;;;;;9.63;2.50;;;;;;;17.90;63.79;96308.50;10428868;28;20585;-28
2022/11/08 18:56:52;;;;;;;7.90;2.13;;;;;;;17.92;64.13;96296.69;10433447;28;20940;-28
2022/11/08 19:01:53;;;;;;;4.40;1.97;;;;;;;17.90;64.44;96293.31;10428392;28;20031;-30
2022/11/08 19:06:53;;;;;;;4.05;2.17;;;;;;;17.92;64.46;96296.69;10433745;28;20044;-28
2022/11/08 19:11:54;;;;;;;7.93;2.27;;;;;;;17.91;64.64;96295.81;10432676;28;20040;-29
2022/11/08 19:16:55;;;;;;;4.67;2.17;;;;;;;17.94;64.46;96294.97;10433288;28;20040;-28
2022/11/08 19:21:55;;;;;;;4.45;2.15;;;;;;;17.95;64.56;96297.50;10434639;28;20773;-29
2022/11/08 19:26:55;;;;;;;5.70;2.30;;;;;;;17.95;64.50;96296.66;10430372;28;20118;-28
2022/11/08 19:31:56;;;;;;;4.87;2.57;;;;;;;17.93;64.03;96293.28;10434489;28;20652;-30
2022/11/08 19:36:56;;;;;;;3.87;1.73;;;;;;;17.93;63.83;96289.06;10394192;28;20291;-29
2022/11/08 19:41:58;;;;;;;3.85;1.77;;;;;;;17.93;64.13;96293.28;10396578;28;20044;-28
2022/11/08 19:46:58;;;;;;;3.00;2.47;;;;;;;17.91;64.24;96287.41;10394521;28;20310;-28
2022/11/08 19:51:58;;;;;;;3.43;2.10;;;;;;;17.85;64.50;96279.81;10420255;28;20033;-28
2022/11/08 19:56:59;;;;;;;3.40;2.13;;;;;;;17.88;64.45;96285.72;10431838;28;20056;-29
2022/11/08 20:01:59;;;;;;;3.80;1.63;;;;;;;17.93;64.22;96288.22;10428006;28;20361;-30
2022/11/08 20:06:59;;;;;;;4.83;1.77;;;;;;;17.95;63.81;96296.66;10428623;28;20437;-30
2022/11/08 20:12:02;;;;;;;3.27;1.80;;;;;;;17.92;64.47;96294.16;10434863;28;20295;-28
2022/11/08 20:17:02;;;;;;;5.80;1.80;;;;;;;17.93;64.45;96293.28;10435975;28;20041;-30
2022/11/08 20:22:02;;;;;;;3.33;1.80;;;;;;;17.94;64.34;96295.84;10434916;28;20025;-30
2022/11/08 20:27:03;;;;;;;4.20;2.40;;;;;;;17.99;64.31;96299.16;10437003;28;20086;-31
2022/11/08 20:32:03;;;;;;;4.43;2.03;;;;;;;17.96;64.65;96298.34;10438684;28;20025;-30
2022/11/08 20:37:04;;;;;;;3.70;2.20;;;;;;;17.98;64.36;96301.72;10439295;28;20491;-30
2022/11/08 20:42:04;;;;;;;3.90;2.60;;;;;;;17.96;64.67;96298.34;10433665;28;20489;-30
2022/11/08 20:47:05;;;;;;;8.23;2.60;;;;;;;17.96;64.63;96303.41;10435790;28;20116;-30
2022/11/08 20:52:05;;;;;;;4.80;2.57;;;;;;;17.90;64.90;96303.44;10440025;28;20025;-30
2022/11/08 20:57:05;;;;;;;7.25;3.58;;;;;;;17.87;65.38;96298.38;10440281;28;20095;-30
2022/11/08 21:02:08;;;;;;;4.90;3.00;;;;;;;17.88;65.07;96298.38;10440977;28;20040;-30
2022/11/08 21:07:08;;;;;;;5.78;2.92;;;;;;;17.85;65.24;96297.56;10431513;28;20036;-30
2022/11/08 21:12:09;;;;;;;6.45;3.22;;;;;;;17.84;65.02;96299.22;10425903;28;20386;-29
2022/11/08 21:17:09;;;;;;;6.33;2.40;;;;;;;17.82;65.08;96295.03;10438332;28;20534;-30
2022/11/08 21:22:15;;;;;;;8.07;3.03;;;;;;;17.81;65.37;96289.13;10433629;28;20021;-30
2022/11/08 21:27:16;;;;;;;7.35;2.78;;;;;;;17.81;65.68;96295.88;10435468;28;20431;-32
2022/11/08 21:32:16;;;;;;;5.15;2.67;;;;;;;17.89;65.71;96300.06;10436317;28;20053;-31
2022/11/08 21:37:16;;;;;;;6.00;3.27;;;;;;;17.93;65.96;96303.44;10439136;28;20044;-32
2022/11/08 21:42:17;;;;;;;6.87;3.20;;;;;;;17.93;65.82;96289.06;10438053;28;20040;-31
2022/11/08 21:47:17;;;;;;;4.50;2.27;;;;;;;17.92;64.85;96294.16;10437243;28;20043;-30
2022/11/08 21:52:17;;;;;;;8.77;3.33;;;;;;;17.89;65.12;96291.59;10435188;28;20122;-30
2022/11/08 21:57:18;;;;;;;6.57;2.63;;;;;;;17.79;65.41;96283.22;10435950;28;20063;-30
2022/11/08 22:02:18;;;;;;;8.63;3.27;;;;;;;17.80;65.44;96287.44;10432434;28;20290;-30
2022/11/08 22:07:18;;;;;;;4.90;2.57;;;;;;;17.79;65.49;96280.69;10429789;28;20041;-30
2022/11/08 22:12:19;;;;;;;5.17;3.00;;;;;;;17.76;65.82;96284.94;10442849;28;20124;-31
2022/11/08 22:17:20;;;;;;;12.07;2.63;;;;;;;17.80;65.84;96289.13;10436994;28;20345;-29
2022/11/08 22:22:20;;;;;;;7.10;2.40;;;;;;;17.82;65.59;96285.75;10428687;28;20484;-30
2022/11/08 22:27:21;;;;;;;9.83;2.87;;;;;;;17.79;65.61;96287.44;10436042;28;20041;-30
2022/11/08 22:32:21;;;;;;;8.63;2.60;;;;;;;17.81;65.52;96283.19;10434810;28;20029;-29
2022/11/08 22:37:22;;;;;;;6.70;2.80;;;;;;;17.78;66.00;96280.69;10434862;28;20627;-30
2022/11/08 22:42:22;;;;;;;6.23;2.53;;;;;;;17.86;65.91;96281.50;10435481;28;20021;-30
2022/11/08 22:47:22;;;;;;;6.40;2.50;;;;;;;17.92;66.27;96284.03;10430363;28;20299;-30
2022/11/08 22:52:23;;;;;;;7.87;2.87;;;;;;;17.92;66.00;96287.38;10437027;28;20575;-30
2022/11/08 22:57:23;;;;;;;6.75;2.28;;;;;;;17.89;65.79;96279.81;10433248;28;20429;-29
2022/11/08 23:02:23;;;;;;;5.00;2.00;;;;;;;17.84;65.58;96283.22;10430586;28;20048;-30
2022/11/08 23:07:24;;;;;;;6.10;2.70;;;;;;;17.74;65.83;96268.91;10427580;28;20033;-31
2022/11/08 23:17:43;;;;;;;5.78;2.65;;;;;;;17.78;66.27;96283.22;10434866;28;20040;-30
2022/11/08 23:33:21;;;;;;;7.93;2.28;;;;;;;17.76;65.89;96285.75;10430827;28;20071;-29
2022/11/08 23:38:21;;;;;;;5.93;3.23;;;;;;;17.76;66.00;96282.41;10437133;28;20116;-30
2022/11/08 23:48:41;;;;;;;6.78;2.28;;;;;;;17.71;65.87;96262.16;10423116;28;20728;-31
2022/11/08 23:53:42;;;;;;;6.57;2.43;;;;;;;17.84;66.32;96273.09;10429006;28;20048;-32
2022/11/08 23:58:43;;;;;;;5.35;2.78;;;;;;;17.89;65.94;96276.41;10424504;28;20346;-30
